Startpagina
METAR-TAF:

METAR-TAF

Vliegvelden :

Flughafen Saarbrücken

Saarbrücken, Duitsland

breedte: 49-13N, lengte: 007-07E, hoogte: 322 m

Actueel weer

Dit bericht is 14 minuten geleden gemaakt, om 21:20 UTC
Wind 2 kt uit variabele richting
Temperatuur 18°C
Vochtigheid 73%
Druk 1014 hPa
Zicht 10 km of meer

METAR: EDDR 162120Z AUTO VRB02KT 9999 // NCD 18/13 Q1014

Tijdstip: 23:34 (21:34 UTC)

Verwachting

Dit bericht is 4 uur en het 34 minuten geleden gemaakt, om 17:00 UTC
Verwachting geldig van 16 om 18 UTC tot 17 om 18 UTC
Wind 4 kt uit het noordnoordoosten
Zicht 10 km of meer
geen wolken onder 1500 m en geen cumulonimbus
Wijzigt naar
van 17 om 06 UTC tot 17 om 09 UTC
Wind 8 kt uit het westen

TAF: EDDR 161700Z 1618/1718 03004KT CAVOK BECMG 1706/1709 27008KT

Waarnemingen en weersverwachtingen van meer dan 4000 vliegvelden (METAR en TAF).

De beschikbare stations zijn de gele en rode punten op de kaart.

Ga met uw muis naar het station om de naam te zien.

Klik dan om waarnemingen en weersverwachtingen te zien.

kaart wijzigen: klik op de groene knoppen met een zwart kruis om in te zoomen, op de groene knop met een streepje om uit te zoomen of op de groene pijlen voor aangrenzende kaarten.


METAR-TAF: